Time;durP1;ratioP1;P1;durP2;ratioP2;P2;SDS_P1;SDS_P2;PMS_P1;PMS_P2;Temp;Humidity;BMP_temperature;BMP_pressure;BME280_temperature;BME280_humidity;BME280_pressure;Samples;Min_cycle;Max_cycle;Signal;HPM_P1;HPM_P2
2024/01/23 00:00:53;;;;;;;7.57;1.85;;;;;;;5.10;100.00;98294.22;15270905;19;20442;-63
2024/01/23 00:06:18;;;;;;;6.35;1.60;;;;;;;5.04;100.00;98305.41;15274115;19;20022;-63
2024/01/23 00:11:45;;;;;;;4.78;1.50;;;;;;;4.99;100.00;98302.28;15270464;19;20017;-62
2024/01/23 00:17:11;;;;;;;7.13;1.40;;;;;;;4.92;100.00;98308.13;15269965;19;20011;-62
2024/01/23 00:22:43;;;;;;;6.53;1.60;;;;;;;4.87;100.00;98301.47;15274616;19;20490;-62
2024/01/23 00:28:10;;;;;;;6.85;1.65;;;;;;;4.93;100.00;98314.31;15276882;19;20590;-62
2024/01/23 00:33:41;;;;;;;5.28;1.50;;;;;;;4.94;100.00;98321.31;15264753;19;20085;-60
2024/01/23 00:39:06;;;;;;;6.53;1.50;;;;;;;4.98;100.00;98328.13;15275902;19;20078;-62
2024/01/23 00:44:35;;;;;;;6.92;1.70;;;;;;;5.01;100.00;98327.00;15137988;19;5001862;-62
2024/01/23 00:50:00;;;;;;;6.25;1.50;;;;;;;4.94;100.00;98326.66;15280943;19;20024;-62
2024/01/23 00:55:24;;;;;;;8.07;1.85;;;;;;;4.89;100.00;98310.19;15285204;19;20015;-61
2024/01/23 01:00:52;;;;;;;6.13;1.40;;;;;;;4.79;100.00;98302.09;15286860;19;20033;-62
2024/01/23 01:06:23;;;;;;;8.38;1.67;;;;;;;4.71;100.00;98304.56;15282657;19;20109;-61
2024/01/23 01:11:48;;;;;;;6.67;1.70;;;;;;;4.63;100.00;98313.19;15282326;19;20374;-63
2024/01/23 01:17:15;;;;;;;6.13;1.48;;;;;;;4.55;100.00;98305.81;15285651;19;20695;-62
2024/01/23 01:22:41;;;;;;;7.47;1.70;;;;;;;4.49;100.00;98325.00;15287940;19;20049;-63
2024/01/23 01:28:06;;;;;;;5.18;1.50;;;;;;;4.47;100.00;98325.13;15287189;19;20029;-63
2024/01/23 01:33:40;;;;;;;6.63;1.70;;;;;;;4.48;100.00;98331.31;15283892;19;20077;-62
2024/01/23 01:39:06;;;;;;;5.90;1.48;;;;;;;4.55;100.00;98329.00;15282822;19;20101;-63
2024/01/23 01:44:32;;;;;;;7.88;1.70;;;;;;;4.62;100.00;98327.50;15287833;19;20373;-61
2024/01/23 01:50:01;;;;;;;5.80;1.48;;;;;;;4.68;100.00;98334.16;15278326;19;20020;-62
2024/01/23 01:55:25;;;;;;;5.97;1.70;;;;;;;4.69;100.00;98328.72;15282451;19;20014;-61
2024/01/23 02:00:50;;;;;;;6.25;1.60;;;;;;;4.75;100.00;98332.72;15282552;19;20020;-62
2024/01/23 02:06:19;;;;;;;7.15;1.30;;;;;;;4.93;100.00;98341.84;15281173;19;20036;-62
2024/01/23 02:11:58;;;;;;;5.22;1.65;;;;;;;5.00;100.00;98341.34;15276529;19;20242;-62
2024/01/23 02:17:23;;;;;;;5.40;1.50;;;;;;;4.99;100.00;98361.84;15279377;19;20018;-61
2024/01/23 02:22:50;;;;;;;7.65;1.70;;;;;;;4.89;100.00;98368.94;15283235;19;20021;-62
2024/01/23 02:28:19;;;;;;;7.90;1.90;;;;;;;4.94;100.00;98391.59;15284140;19;20463;-62
2024/01/23 02:33:51;;;;;;;6.07;1.45;;;;;;;5.08;100.00;98393.13;15279451;19;20022;-61
2024/01/23 02:39:16;;;;;;;5.23;1.40;;;;;;;5.06;100.00;98407.59;15284943;19;20014;-62
2024/01/23 02:44:45;;;;;;;5.95;1.40;;;;;;;5.08;100.00;98406.47;15276785;19;20375;-62
2024/01/23 02:50:11;;;;;;;6.15;1.33;;;;;;;5.17;100.00;98417.41;15274512;19;20014;-61
2024/01/23 02:55:36;;;;;;;7.45;1.80;;;;;;;5.25;100.00;98409.59;15276965;19;20026;-62
2024/01/23 03:01:03;;;;;;;5.45;1.20;;;;;;;5.16;100.00;98421.88;15276181;19;20022;-63
2024/01/23 03:06:28;;;;;;;4.63;1.15;;;;;;;5.04;100.00;98439.75;15275161;19;20028;-62
2024/01/23 03:11:53;;;;;;;3.90;1.00;;;;;;;5.09;100.00;98452.75;15273458;19;20017;-61
2024/01/23 03:17:22;;;;;;;2.10;0.70;;;;;;;5.19;100.00;98453.69;15274007;19;20081;-62
2024/01/23 03:22:47;;;;;;;5.50;0.90;;;;;;;5.25;100.00;98458.50;15278290;19;20022;-62
2024/01/23 03:28:12;;;;;;;2.45;0.60;;;;;;;5.10;100.00;98465.13;15277410;19;20018;-63
2024/01/23 03:33:48;;;;;;;2.13;0.52;;;;;;;4.91;100.00;98466.59;15273389;19;20471;-63
2024/01/23 03:39:20;;;;;;;3.85;0.73;;;;;;;4.76;100.00;98499.88;15276091;19;20105;-62
2024/01/23 03:44:45;;;;;;;1.98;0.63;;;;;;;4.63;100.00;98506.19;15274867;19;20022;-62
2024/01/23 03:50:13;;;;;;;3.35;0.85;;;;;;;4.48;100.00;98504.72;15277099;19;20024;-62
2024/01/23 03:55:39;;;;;;;3.97;0.70;;;;;;;4.34;100.00;98528.97;15275592;19;20015;-62
2024/01/23 04:01:07;;;;;;;2.83;0.90;;;;;;;4.19;100.00;98545.16;15278468;19;20022;-63
2024/01/23 04:06:35;;;;;;;2.60;0.65;;;;;;;4.06;100.00;98565.75;15274770;19;20078;-62
2024/01/23 04:11:59;;;;;;;2.05;0.85;;;;;;;3.84;100.00;98573.56;15270487;19;20031;-62
2024/01/23 04:17:24;;;;;;;2.10;0.60;;;;;;;3.69;100.00;98580.88;15278626;19;20024;-63
2024/01/23 04:22:51;;;;;;;1.20;0.40;;;;;;;3.53;100.00;98582.97;15289305;19;20105;-62
2024/01/23 04:28:17;;;;;;;1.27;0.50;;;;;;;3.53;100.00;98618.44;15294862;19;20022;-62
2024/01/23 04:33:49;;;;;;;1.33;0.43;;;;;;;3.44;100.00;98624.44;15283391;19;20495;-62
2024/01/23 04:39:16;;;;;;;1.02;0.25;;;;;;;3.36;100.00;98640.97;15291772;19;20484;-62
2024/01/23 04:44:41;;;;;;;1.63;0.30;;;;;;;3.34;100.00;98636.72;15290782;19;20020;-64
2024/01/23 04:50:07;;;;;;;1.27;0.52;;;;;;;3.31;100.00;98663.56;15284818;19;20019;-64
2024/01/23 04:55:34;;;;;;;1.13;0.40;;;;;;;3.34;100.00;98698.84;15286559;19;20074;-65
2024/01/23 05:00:59;;;;;;;0.77;0.35;;;;;;;3.26;100.00;98687.84;15293907;19;20031;-64
2024/01/23 05:06:23;;;;;;;1.17;0.32;;;;;;;3.13;100.00;98703.84;15282673;19;20474;-63
2024/01/23 05:11:51;;;;;;;1.17;0.50;;;;;;;3.01;100.00;98724.16;15305447;19;20078;-65
2024/01/23 05:17:15;;;;;;;2.50;0.50;;;;;;;2.97;100.00;98728.03;15290573;19;20015;-63
2024/01/23 05:22:41;;;;;;;2.58;0.60;;;;;;;2.90;100.00;98743.56;15283935;19;20098;-65
2024/01/23 05:28:08;;;;;;;2.25;0.73;;;;;;;2.91;100.00;98747.06;15286282;19;20014;-65
2024/01/23 05:33:39;;;;;;;2.53;0.65;;;;;;;2.92;100.00;98756.75;15281138;19;20745;-65
2024/01/23 05:39:05;;;;;;;3.83;0.80;;;;;;;2.83;100.00;98762.69;15283798;19;20018;-65
2024/01/23 05:44:33;;;;;;;1.77;0.63;;;;;;;2.77;100.00;98775.44;15281664;19;20086;-66
2024/01/23 05:50:03;;;;;;;2.47;0.77;;;;;;;2.70;100.00;98800.75;15283856;19;20031;-65
2024/01/23 05:55:27;;;;;;;2.40;0.77;;;;;;;2.64;100.00;98811.81;15275986;19;20582;-65
2024/01/23 06:00:54;;;;;;;2.42;0.80;;;;;;;2.75;100.00;98827.94;15283578;19;20824;-68
2024/01/23 06:06:19;;;;;;;4.13;1.10;;;;;;;3.10;100.00;98860.28;15278515;19;20006;-65
2024/01/23 06:11:44;;;;;;;3.30;0.80;;;;;;;3.22;100.00;98865.63;15274955;19;20018;-65
2024/01/23 06:17:11;;;;;;;4.88;1.15;;;;;;;3.23;100.00;98877.13;15277728;19;20371;-67
2024/01/23 06:22:36;;;;;;;3.78;0.95;;;;;;;3.24;100.00;98868.16;15278773;19;20017;-65
2024/01/23 06:28:00;;;;;;;2.60;1.10;;;;;;;3.36;100.00;98866.50;15277438;19;20010;-67
2024/01/23 06:33:27;;;;;;;4.78;1.17;;;;;;;3.35;100.00;98883.44;15278729;19;20026;-66
2024/01/23 06:38:52;;;;;;;6.53;1.30;;;;;;;3.34;100.00;98881.72;15278744;19;20023;-65
2024/01/23 06:44:18;;;;;;;5.45;1.15;;;;;;;3.46;100.00;98882.72;15279748;19;20022;-64
2024/01/23 06:49:45;;;;;;;6.65;1.27;;;;;;;3.53;100.00;98899.97;15278757;19;20022;-67
2024/01/23 06:55:11;;;;;;;5.93;1.30;;;;;;;3.64;100.00;98907.25;15277990;19;20038;-65
2024/01/23 07:00:36;;;;;;;6.60;1.40;;;;;;;3.68;100.00;98916.72;15275584;19;20018;-66
2024/01/23 07:06:03;;;;;;;7.38;1.58;;;;;;;3.72;100.00;98925.34;15273563;19;20506;-68
2024/01/23 07:11:28;;;;;;;5.53;1.63;;;;;;;3.72;100.00;98915.56;15272033;19;20019;-66
2024/01/23 07:16:53;;;;;;;4.32;1.20;;;;;;;3.82;100.00;98927.28;15271981;19;20015;-66
2024/01/23 07:22:20;;;;;;;5.72;1.50;;;;;;;3.93;100.00;98913.22;15279378;19;20032;-66
2024/01/23 07:27:45;;;;;;;7.63;1.77;;;;;;;4.01;100.00;98932.19;15277249;19;20010;-67
2024/01/23 07:33:09;;;;;;;5.38;1.50;;;;;;;4.09;100.00;98921.00;15270937;19;20022;-66
2024/01/23 07:38:38;;;;;;;8.18;1.70;;;;;;;4.11;100.00;98926.22;15269583;19;20375;-64
2024/01/23 07:44:03;;;;;;;9.50;2.10;;;;;;;4.00;100.00;98924.28;15274051;19;20379;-64
2024/01/23 07:49:28;;;;;;;6.35;1.60;;;;;;;3.96;100.00;98954.81;15275720;19;20014;-66
2024/01/23 07:54:55;;;;;;;7.80;1.45;;;;;;;3.87;100.00;98940.28;15271740;19;20022;-66
2024/01/23 08:00:21;;;;;;;6.25;1.55;;;;;;;3.90;100.00;98961.41;15276306;19;20021;-62
2024/01/23 08:05:45;;;;;;;7.05;1.42;;;;;;;3.88;100.00;98968.66;15269336;19;20086;-65
2024/01/23 08:11:13;;;;;;;5.00;1.35;;;;;;;3.95;100.00;98977.94;15278018;19;20014;-63
2024/01/23 08:16:42;;;;;;;7.30;1.92;;;;;;;4.07;100.00;98997.56;15271230;19;20037;-66
2024/01/23 08:22:07;;;;;;;6.70;1.60;;;;;;;4.14;100.00;99012.19;15274105;19;20037;-65
2024/01/23 08:27:34;;;;;;;6.28;1.58;;;;;;;4.15;100.00;98997.88;15278632;19;20019;-66
2024/01/23 08:33:09;;;;;;;7.07;1.55;;;;;;;4.11;100.00;98998.22;15271711;19;20094;-65
2024/01/23 08:38:36;;;;;;;7.07;1.58;;;;;;;4.21;100.00;99033.94;15270627;19;20041;-65
2024/01/23 08:44:05;;;;;;;4.95;1.40;;;;;;;4.38;100.00;99023.94;15273534;19;20473;-63
2024/01/23 08:49:30;;;;;;;7.90;1.75;;;;;;;4.44;100.00;99032.38;15274470;19;20015;-66
2024/01/23 08:54:54;;;;;;;5.75;1.60;;;;;;;4.48;100.00;99047.19;15268319;19;20490;-65
2024/01/23 09:00:22;;;;;;;5.32;1.35;;;;;;;4.51;100.00;99051.47;15275664;19;20018;-65
2024/01/23 09:05:46;;;;;;;6.80;1.90;;;;;;;4.57;100.00;99067.03;15283452;19;20014;-62
2024/01/23 09:11:11;;;;;;;8.82;1.90;;;;;;;4.61;100.00;99065.88;15282974;19;20014;-64
2024/01/23 09:16:41;;;;;;;8.10;1.65;;;;;;;4.66;100.00;99070.03;15286642;19;20025;-61
2024/01/23 09:22:06;;;;;;;7.00;1.77;;;;;;;4.73;100.00;99071.31;15282580;19;20018;-65
2024/01/23 09:27:30;;;;;;;8.00;1.75;;;;;;;4.81;100.00;99095.66;15291180;19;20035;-65
2024/01/23 09:33:11;;;;;;;7.63;1.73;;;;;;;4.88;100.00;99088.06;15283651;19;20021;-65
2024/01/23 09:38:35;;;;;;;7.60;1.88;;;;;;;5.00;100.00;99099.69;15288058;19;20453;-62
2024/01/23 09:44:00;;;;;;;6.90;1.73;;;;;;;5.11;100.00;99085.56;15259654;19;20382;-64
2024/01/23 09:49:27;;;;;;;9.10;1.80;;;;;;;5.18;100.00;99108.19;15283323;19;20019;-62
2024/01/23 09:54:55;;;;;;;5.53;1.70;;;;;;;5.22;100.00;99105.22;15280169;19;20023;-64
2024/01/23 10:00:20;;;;;;;10.48;1.88;;;;;;;5.28;100.00;99100.38;15284463;19;20086;-64
2024/01/23 10:05:48;;;;;;;9.18;1.80;;;;;;;5.34;100.00;99107.97;15279437;19;20015;-66
2024/01/23 10:11:13;;;;;;;7.82;1.90;;;;;;;5.34;100.00;99122.16;15285837;19;20022;-65
2024/01/23 10:16:39;;;;;;;10.30;1.95;;;;;;;5.39;100.00;99119.16;15276855;19;20022;-66
2024/01/23 10:22:06;;;;;;;9.43;2.20;;;;;;;5.45;100.00;99113.38;15285505;19;20018;-64
2024/01/23 10:27:32;;;;;;;9.60;1.60;;;;;;;5.53;100.00;99119.00;15282239;19;20408;-63
2024/01/23 10:32:56;;;;;;;7.30;2.33;;;;;;;5.63;100.00;99118.34;15277294;19;20010;-67
2024/01/23 10:38:24;;;;;;;5.97;1.80;;;;;;;5.69;100.00;99113.41;15283146;19;20010;-66
2024/01/23 10:43:49;;;;;;;9.18;1.83;;;;;;;5.71;100.00;99119.50;15282238;19;20490;-67
2024/01/23 10:49:15;;;;;;;6.82;1.83;;;;;;;5.71;100.00;99116.81;15279610;19;20014;-64
2024/01/23 10:54:52;;;;;;;6.18;1.77;;;;;;;5.73;100.00;99118.53;15278180;19;20093;-66
2024/01/23 11:00:20;;;;;;;9.18;1.90;;;;;;;5.79;100.00;99139.44;15276280;19;20133;-64
2024/01/23 11:05:53;;;;;;;5.03;1.70;;;;;;;5.76;100.00;99143.22;15279632;19;20019;-65
2024/01/23 11:11:29;;;;;;;7.57;1.98;;;;;;;5.80;100.00;99157.19;15282896;19;20073;-65
2024/01/23 11:17:11;;;;;;;6.55;1.80;;;;;;;5.83;100.00;99165.00;15270268;19;20427;-65
2024/01/23 11:22:36;;;;;;;7.95;1.75;;;;;;;5.91;100.00;99169.78;15281966;19;20042;-65
2024/01/23 11:27:57;;;;;;;10.52;1.90;;;;;;;5.97;100.00;99164.84;15278723;19;20078;-64
2024/01/23 11:33:32;;;;;;;7.53;2.03;;;;;;;6.01;100.00;99178.88;15278161;19;20014;-65
2024/01/23 11:39:00;;;;;;;8.95;2.10;;;;;;;6.08;100.00;99179.28;15276141;19;20013;-65
2024/01/23 11:44:30;;;;;;;8.20;1.90;;;;;;;6.09;100.00;99189.84;15277988;19;20471;-65
2024/01/23 11:49:56;;;;;;;7.78;1.90;;;;;;;6.13;100.00;99175.28;15270448;19;20019;-65
2024/01/23 11:55:23;;;;;;;8.80;2.03;;;;;;;6.19;100.00;99178.47;15270257;19;20015;-65
2024/01/23 12:00:52;;;;;;;8.10;1.98;;;;;;;6.25;100.00;99168.16;15266177;19;20018;-65
2024/01/23 12:06:17;;;;;;;7.60;2.20;;;;;;;6.33;100.00;99175.59;15273594;19;20849;-65
2024/01/23 12:11:42;;;;;;;8.98;2.10;;;;;;;6.42;100.00;99171.38;15277339;19;20015;-63
2024/01/23 12:17:13;;;;;;;5.68;1.50;;;;;;;6.70;100.00;99162.09;15271264;19;20530;-63
2024/01/23 12:22:39;;;;;;;7.93;1.70;;;;;;;6.99;100.00;99169.72;15270949;19;20021;-65
2024/01/23 12:28:04;;;;;;;6.95;1.80;;;;;;;7.14;100.00;99148.88;15275875;19;20026;-65
2024/01/23 12:33:33;;;;;;;7.38;2.00;;;;;;;7.16;100.00;99140.72;15274589;19;20023;-65
2024/01/23 12:38:57;;;;;;;8.25;1.95;;;;;;;7.10;100.00;99166.16;15286744;19;20630;-65
2024/01/23 12:44:22;;;;;;;7.03;2.35;;;;;;;7.00;100.00;99168.72;15290208;19;20090;-65
2024/01/23 12:49:50;;;;;;;10.25;1.88;;;;;;;6.94;100.00;99201.34;15287024;19;20761;-65
2024/01/23 12:55:17;;;;;;;9.73;1.88;;;;;;;6.88;100.00;99188.44;15278632;19;20025;-65
2024/01/23 13:00:41;;;;;;;6.20;1.80;;;;;;;6.82;100.00;99191.59;15287203;19;20014;-65
2024/01/23 13:06:10;;;;;;;8.57;1.90;;;;;;;6.79;100.00;99200.72;15287506;19;20463;-64
2024/01/23 13:11:35;;;;;;;6.28;1.60;;;;;;;6.77;100.00;99183.91;15288910;19;20014;-65
2024/01/23 13:17:00;;;;;;;5.50;1.60;;;;;;;6.78;100.00;99170.38;15285377;19;20017;-65
2024/01/23 13:22:34;;;;;;;7.75;1.60;;;;;;;6.84;100.00;99170.91;15289855;19;20082;-65
2024/01/23 13:28:00;;;;;;;5.90;1.90;;;;;;;6.85;100.00;99172.59;15282224;19;20038;-65
2024/01/23 13:33:31;;;;;;;6.88;1.70;;;;;;;6.84;100.00;99173.56;15287417;19;20026;-65
2024/01/23 13:38:59;;;;;;;7.80;1.60;;;;;;;6.70;100.00;99188.88;15288469;19;20355;-64
2024/01/23 13:44:23;;;;;;;7.25;1.90;;;;;;;6.70;100.00;99178.16;15288675;19;20486;-65
2024/01/23 13:49:50;;;;;;;8.23;1.95;;;;;;;6.73;100.00;99180.63;15280722;19;20353;-69
2024/01/23 13:55:17;;;;;;;7.63;2.03;;;;;;;6.74;100.00;99187.69;15278079;19;20022;-65
2024/01/23 14:00:42;;;;;;;8.02;1.90;;;;;;;6.68;100.00;99192.66;15274205;19;20499;-65
2024/01/23 14:06:06;;;;;;;8.07;2.03;;;;;;;6.53;100.00;99195.53;15285698;19;20535;-65
2024/01/23 14:11:34;;;;;;;7.47;1.77;;;;;;;6.39;100.00;99201.94;15281843;19;20010;-65
2024/01/23 14:16:58;;;;;;;6.65;1.80;;;;;;;6.27;100.00;99213.56;15277706;19;20077;-66
2024/01/23 14:22:24;;;;;;;6.18;1.65;;;;;;;6.22;100.00;99221.94;15283951;19;20094;-65
2024/01/23 14:27:53;;;;;;;9.13;1.80;;;;;;;6.15;100.00;99226.88;15287551;19;20017;-65
2024/01/23 14:33:22;;;;;;;8.35;1.55;;;;;;;6.14;100.00;99235.00;15280210;19;20029;-65
2024/01/23 14:38:55;;;;;;;8.45;2.08;;;;;;;6.18;100.00;99252.53;15285081;19;20027;-64
2024/01/23 14:44:23;;;;;;;8.68;1.90;;;;;;;6.10;100.00;99255.78;15282999;19;20029;-64
2024/01/23 14:49:47;;;;;;;8.52;2.15;;;;;;;5.99;100.00;99253.00;15283906;19;20014;-64
2024/01/23 14:55:13;;;;;;;11.77;2.28;;;;;;;5.96;100.00;99269.25;15280840;19;20028;-64
2024/01/23 15:00:39;;;;;;;8.13;2.10;;;;;;;5.92;100.00;99268.63;15282388;19;20029;-65
2024/01/23 15:06:04;;;;;;;7.90;2.05;;;;;;;5.85;100.00;99273.56;15272998;19;20035;-65
2024/01/23 15:11:29;;;;;;;6.15;1.63;;;;;;;5.83;100.00;99272.81;15281120;19;20018;-66
2024/01/23 15:16:57;;;;;;;7.90;1.90;;;;;;;5.78;100.00;99283.00;15301723;19;20060;-65
2024/01/23 15:22:22;;;;;;;9.55;1.92;;;;;;;5.71;100.00;99281.72;15278996;19;20022;-65
2024/01/23 15:27:47;;;;;;;9.20;2.03;;;;;;;5.65;100.00;99276.81;15277869;19;20028;-65
2024/01/23 15:33:22;;;;;;;10.27;1.88;;;;;;;5.52;100.00;99271.50;15275361;19;20086;-65
2024/01/23 15:38:46;;;;;;;8.02;2.03;;;;;;;5.44;100.00;99279.16;15272203;19;20019;-65
2024/01/23 15:44:11;;;;;;;6.88;1.83;;;;;;;5.37;100.00;99284.09;15279908;19;20014;-65
2024/01/23 15:49:40;;;;;;;9.95;2.30;;;;;;;5.31;100.00;99293.38;15276929;19;20021;-65
2024/01/23 15:55:06;;;;;;;7.55;2.20;;;;;;;5.28;100.00;99287.41;15269062;19;20029;-65
2024/01/23 16:00:32;;;;;;;7.00;2.00;;;;;;;5.31;100.00;99295.22;15270003;19;20074;-65
2024/01/23 16:05:59;;;;;;;8.60;2.45;;;;;;;5.34;100.00;99292.34;15274618;19;20352;-65
2024/01/23 16:11:24;;;;;;;6.95;1.92;;;;;;;5.34;100.00;99284.31;15247621;19;20015;-65
2024/01/23 16:16:49;;;;;;;7.00;2.30;;;;;;;5.33;100.00;99282.59;15283765;19;20020;-65
2024/01/23 16:22:17;;;;;;;10.68;4.38;;;;;;;5.32;100.00;99286.25;15287113;19;20017;-65
2024/01/23 16:27:42;;;;;;;11.43;3.90;;;;;;;5.25;100.00;99265.28;15290384;19;20041;-65
2024/01/23 16:33:14;;;;;;;7.80;2.42;;;;;;;5.19;100.00;99262.16;15282553;19;20023;-64
2024/01/23 16:38:42;;;;;;;11.00;2.50;;;;;;;5.11;100.00;99262.72;15280760;19;20014;-65
2024/01/23 16:44:07;;;;;;;6.10;2.30;;;;;;;5.05;100.00;99250.66;15288377;19;20094;-65
2024/01/23 16:49:31;;;;;;;8.18;2.38;;;;;;;5.01;100.00;99242.94;15290999;19;20018;-65
2024/01/23 16:54:59;;;;;;;7.65;2.28;;;;;;;4.94;100.00;99237.16;15290684;19;20014;-65
2024/01/23 17:00:23;;;;;;;8.68;2.63;;;;;;;4.89;100.00;99239.28;15280399;19;20102;-65
2024/01/23 17:05:48;;;;;;;9.98;2.80;;;;;;;4.91;100.00;99235.56;15282175;19;20014;-66
2024/01/23 17:11:16;;;;;;;7.82;2.35;;;;;;;4.90;100.00;99228.50;15276662;19;20022;-66
2024/01/23 17:16:41;;;;;;;7.28;2.50;;;;;;;4.88;100.00;99218.91;15279376;19;20031;-66
2024/01/23 17:22:06;;;;;;;9.65;2.20;;;;;;;4.81;100.00;99210.44;15285364;19;20007;-66
2024/01/23 17:27:34;;;;;;;9.90;2.65;;;;;;;4.79;100.00;99199.00;15277132;19;20014;-65
2024/01/23 17:32:58;;;;;;;11.73;3.35;;;;;;;4.77;100.00;99195.59;15284828;19;20025;-65
2024/01/23 17:38:24;;;;;;;7.00;2.33;;;;;;;4.79;100.00;99183.00;15282478;19;20498;-66
2024/01/23 17:43:52;;;;;;;7.90;2.00;;;;;;;4.71;100.00;99180.00;15279887;19;20018;-65
2024/01/23 17:49:17;;;;;;;10.80;2.40;;;;;;;4.69;100.00;99176.59;15285956;19;20019;-65
2024/01/23 17:54:43;;;;;;;11.85;2.30;;;;;;;4.73;100.00;99167.41;15285985;19;20015;-66
2024/01/23 18:00:10;;;;;;;6.70;2.20;;;;;;;4.76;100.00;99177.88;15285051;19;20038;-64
2024/01/23 18:05:35;;;;;;;8.32;2.03;;;;;;;4.75;100.00;99171.69;15282795;19;20015;-63
2024/01/23 18:10:59;;;;;;;7.70;1.92;;;;;;;4.83;100.00;99162.28;15280937;19;20021;-65
2024/01/23 18:16:29;;;;;;;10.45;2.88;;;;;;;4.91;100.00;99171.47;15273330;19;20464;-63
2024/01/23 18:21:54;;;;;;;8.77;2.25;;;;;;;4.92;100.00;99178.53;15279202;19;20027;-65
2024/01/23 18:27:19;;;;;;;6.15;1.80;;;;;;;4.98;100.00;99181.75;15276224;19;20018;-64
2024/01/23 18:32:47;;;;;;;9.63;2.63;;;;;;;4.98;100.00;99182.56;15281999;19;20015;-64
2024/01/23 18:38:12;;;;;;;6.95;1.88;;;;;;;5.00;100.00;99169.13;15275789;19;20019;-64
2024/01/23 18:43:37;;;;;;;7.63;2.40;;;;;;;5.04;100.00;99166.13;15280211;19;20623;-64
2024/01/23 18:49:05;;;;;;;7.97;2.10;;;;;;;5.09;100.00;99157.81;15276538;19;20102;-63
2024/01/23 18:54:30;;;;;;;8.55;2.00;;;;;;;5.16;100.00;99164.41;15281923;19;20018;-64
2024/01/23 18:59:56;;;;;;;8.75;2.22;;;;;;;5.21;100.00;99166.75;15280614;19;20034;-64
2024/01/23 19:05:25;;;;;;;7.93;2.05;;;;;;;5.25;100.00;99152.22;15278774;19;20025;-65
2024/01/23 19:10:51;;;;;;;6.35;1.95;;;;;;;5.30;100.00;99151.88;15283085;19;20349;-65
2024/01/23 19:16:16;;;;;;;9.55;2.03;;;;;;;5.34;100.00;99140.03;15272940;19;20014;-65
2024/01/23 19:21:43;;;;;;;7.82;1.90;;;;;;;5.35;100.00;99142.59;15271278;19;20014;-64
2024/01/23 19:27:08;;;;;;;8.50;2.50;;;;;;;5.40;100.00;99151.13;15276905;19;20022;-64
2024/01/23 19:32:33;;;;;;;9.05;2.30;;;;;;;5.45;100.00;99129.41;15274978;19;20501;-64
2024/01/23 19:38:01;;;;;;;7.03;2.03;;;;;;;5.48;100.00;99105.13;15273387;19;20029;-64
2024/01/23 19:43:26;;;;;;;11.00;2.50;;;;;;;5.57;100.00;99097.41;15279027;19;20015;-61
2024/01/23 19:48:51;;;;;;;10.25;2.50;;;;;;;5.66;100.00;99084.19;15278302;19;20086;-62
2024/01/23 19:54:20;;;;;;;9.07;2.28;;;;;;;5.80;100.00;99069.81;15272642;19;20082;-63
2024/01/23 19:59:45;;;;;;;9.23;2.42;;;;;;;5.92;100.00;99080.56;15278745;19;20026;-63
2024/01/23 20:05:12;;;;;;;7.85;2.00;;;;;;;6.00;100.00;99075.53;15268830;19;21024;-64
2024/01/23 20:10:40;;;;;;;14.18;2.55;;;;;;;6.04;100.00;99052.06;15275446;19;20030;-65
2024/01/23 20:16:06;;;;;;;9.70;2.45;;;;;;;6.08;100.00;99043.69;15275933;19;20035;-65
2024/01/23 20:21:31;;;;;;;8.85;1.70;;;;;;;6.13;100.00;99043.31;15275663;19;20029;-67
2024/01/23 20:26:59;;;;;;;8.23;1.60;;;;;;;6.16;100.00;99033.25;15244582;19;20039;-67
2024/01/23 20:32:24;;;;;;;9.07;2.10;;;;;;;6.19;100.00;99033.97;15270146;19;20037;-65
2024/01/23 20:37:49;;;;;;;8.07;1.83;;;;;;;6.17;100.00;99013.53;15270389;19;20022;-67
2024/01/23 20:43:17;;;;;;;6.72;1.80;;;;;;;6.14;100.00;98989.72;15272004;19;20058;-65
2024/01/23 20:48:41;;;;;;;8.40;1.95;;;;;;;6.10;100.00;98979.38;15273434;19;20490;-64
2024/01/23 20:54:06;;;;;;;8.23;2.38;;;;;;;6.05;100.00;98971.72;15274636;19;20031;-65
2024/01/23 20:59:34;;;;;;;9.25;1.95;;;;;;;5.98;100.00;98941.00;15275857;19;20581;-67
2024/01/23 21:04:59;;;;;;;11.18;2.72;;;;;;;5.91;100.00;98937.97;15282367;19;20122;-67
2024/01/23 21:10:26;;;;;;;13.20;2.67;;;;;;;5.81;100.00;98924.47;15289540;19;20025;-67
2024/01/23 21:15:54;;;;;;;9.05;2.20;;;;;;;5.71;100.00;98920.78;15286069;19;20010;-67
2024/01/23 21:21:19;;;;;;;9.02;1.95;;;;;;;5.65;100.00;98921.25;15287343;19;20018;-66
2024/01/23 21:26:44;;;;;;;7.68;2.22;;;;;;;5.60;100.00;98923.41;15277236;19;20031;-66
2024/01/23 21:32:19;;;;;;;8.02;1.90;;;;;;;5.57;100.00;98915.66;15281435;19;20025;-67
2024/01/23 21:37:43;;;;;;;5.47;1.88;;;;;;;5.50;100.00;98885.88;15282335;19;20011;-66
2024/01/23 21:43:08;;;;;;;5.05;1.50;;;;;;;5.46;100.00;98887.94;15288383;19;20094;-66
2024/01/23 21:48:35;;;;;;;3.92;1.33;;;;;;;5.45;100.00;98862.19;15284072;19;20105;-66
2024/01/23 21:54:00;;;;;;;5.85;1.90;;;;;;;5.44;100.00;98856.94;15285245;19;20018;-67
2024/01/23 21:59:25;;;;;;;4.55;1.25;;;;;;;5.39;100.00;98846.59;15282300;19;20010;-66
2024/01/23 22:04:53;;;;;;;3.05;0.95;;;;;;;5.35;100.00;98837.13;15275572;19;20018;-67
2024/01/23 22:10:20;;;;;;;5.65;1.20;;;;;;;5.31;100.00;98831.16;15281951;19;20018;-66
2024/01/23 22:15:45;;;;;;;2.35;0.90;;;;;;;5.28;100.00;98819.84;15280117;19;20019;-67
2024/01/23 22:21:13;;;;;;;3.97;1.10;;;;;;;5.23;100.00;98799.69;15283618;19;20019;-67
2024/01/23 22:26:38;;;;;;;2.83;0.80;;;;;;;5.22;100.00;98798.00;15280058;19;20093;-66
2024/01/23 22:32:11;;;;;;;4.25;0.73;;;;;;;5.19;100.00;98792.91;15281275;19;20022;-67
2024/01/23 22:37:48;;;;;;;2.50;0.80;;;;;;;5.15;100.00;98783.41;15237115;19;20022;-66
2024/01/23 22:43:15;;;;;;;2.85;0.90;;;;;;;5.11;100.00;98787.28;15275969;19;20477;-66
2024/01/23 22:48:40;;;;;;;1.75;0.80;;;;;;;5.08;100.00;98788.34;15273930;19;20082;-66
2024/01/23 22:54:08;;;;;;;1.17;0.68;;;;;;;5.07;100.00;98788.50;15275915;19;20014;-66
2024/01/23 22:59:33;;;;;;;2.53;0.80;;;;;;;5.05;100.00;98783.28;15276884;19;20027;-66
2024/01/23 23:04:58;;;;;;;1.42;0.80;;;;;;;5.04;100.00;98773.56;15269367;19;20024;-67
2024/01/23 23:10:26;;;;;;;2.50;0.70;;;;;;;5.03;100.00;98776.31;15279171;19;20014;-67
2024/01/23 23:15:51;;;;;;;3.13;0.80;;;;;;;5.01;100.00;98765.78;15276385;19;20018;-67
2024/01/23 23:21:16;;;;;;;1.10;0.50;;;;;;;4.99;100.00;98764.19;15273820;19;20795;-66
2024/01/23 23:26:44;;;;;;;0.93;0.60;;;;;;;4.96;100.00;98764.44;15273811;19;20082;-67
2024/01/23 23:32:09;;;;;;;1.75;0.55;;;;;;;4.93;100.00;98755.69;15276527;19;20018;-67
2024/01/23 23:37:34;;;;;;;1.05;0.50;;;;;;;4.94;100.00;98744.03;15263191;19;20014;-67
2024/01/23 23:43:03;;;;;;;1.40;0.50;;;;;;;4.96;100.00;98727.03;15275712;19;20035;-68
2024/01/23 23:48:27;;;;;;;0.60;0.47;;;;;;;4.97;100.00;98718.06;15273137;19;20018;-67
2024/01/23 23:53:52;;;;;;;1.50;0.43;;;;;;;5.00;100.00;98701.81;15276696;19;20017;-67
2024/01/23 23:59:20;;;;;;;0.85;0.45;;;;;;;5.03;100.00;98701.56;15271060;19;20010;-67
